Time;durP1;ratioP1;P1;durP2;ratioP2;P2;SDS_P1;SDS_P2;PMS_P1;PMS_P2;Temp;Humidity;BMP_temperature;BMP_pressure;BME280_temperature;BME280_humidity;BME280_pressure;Samples;Min_cycle;Max_cycle;Signal;HPM_P1;HPM_P2
2023/07/06 00:01:26;;;;;;;11.13;2.33;;;;;;;;;;5043460;28;20576;-58
2023/07/06 00:03:56;;;;;;;21.85;3.00;;;;;;;;;;5042744;28;20482;-54
2023/07/06 00:06:23;;;;;;;14.25;2.80;;;;;;;;;;5041783;28;20044;-53
2023/07/06 00:08:53;;;;;;;20.48;2.90;;;;;;;;;;5054097;28;20059;-54
2023/07/06 00:11:21;;;;;;;17.20;3.20;;;;;;;;;;5054372;28;20035;-55
2023/07/06 00:13:48;;;;;;;16.63;3.00;;;;;;;;;;5054468;28;20047;-55
2023/07/06 00:16:15;;;;;;;16.55;2.78;;;;;;;;;;5037156;28;20107;-56
2023/07/06 00:18:42;;;;;;;18.77;3.00;;;;;;;;;;5054702;28;20135;-55
2023/07/06 00:21:09;;;;;;;12.73;3.15;;;;;;;;;;5054730;28;20071;-53
2023/07/06 00:23:36;;;;;;;17.48;3.10;;;;;;;;;;5054643;28;20029;-53
2023/07/06 00:26:04;;;;;;;12.80;3.20;;;;;;;;;;5054854;28;20482;-55
2023/07/06 00:28:32;;;;;;;20.38;4.43;;;;;;;;;;5054605;28;20056;-56
2023/07/06 00:31:02;;;;;;;19.67;6.45;;;;;;;;;;5053979;28;20041;-55
2023/07/06 00:33:30;;;;;;;16.40;8.70;;;;;;;;;;5054638;28;20551;-55
2023/07/06 00:35:57;;;;;;;29.20;12.95;;;;;;;;;;5054397;28;20112;-55
2023/07/06 00:38:24;;;;;;;26.05;13.73;;;;;;;;;;5054426;28;20454;-55
2023/07/06 00:40:56;;;;;;;39.33;14.35;;;;;;;;;;5054258;28;20504;-55
2023/07/06 00:43:24;;;;;;;34.45;14.77;;;;;;;;;;5055120;28;20037;-55
2023/07/06 00:45:56;;;;;;;33.03;15.38;;;;;;;;;;5064626;28;20096;-56
2023/07/06 00:48:23;;;;;;;;;;;;;;;;;;5054831;28;20021;-54
2023/07/06 00:50:52;;;;;;;30.60;13.70;;;;;;;;;;5054253;28;20357;-54
2023/07/06 00:53:20;;;;;;;34.60;13.65;;;;;;;;;;5053670;28;20036;-56
2023/07/06 00:55:47;;;;;;;31.45;13.48;;;;;;;;;;5053748;28;20091;-54
2023/07/06 00:58:44;;;;;;;28.77;13.13;;;;;;;;;;5053642;28;20116;-55
2023/07/06 01:01:12;;;;;;;30.70;13.55;;;;;;;;;;5023271;28;20399;-55
2023/07/06 01:03:44;;;;;;;28.00;13.18;;;;;;;;;;5054141;28;20032;-55
2023/07/06 01:06:23;;;;;;;37.22;13.18;;;;;;;;;;5054095;28;20021;-56
2023/07/06 01:08:52;;;;;;;31.45;13.15;;;;;;;;;;5052439;28;20387;-57
2023/07/06 01:11:20;;;;;;;26.45;12.30;;;;;;;;;;5053893;28;20521;-56
2023/07/06 01:13:51;;;;;;;32.78;12.80;;;;;;;;;;5053797;28;20029;-56
2023/07/06 01:16:37;;;;;;;34.35;13.52;;;;;;;;;;5052400;28;20040;-57
2023/07/06 01:19:22;;;;;;;34.17;13.52;;;;;;;;;;5042391;28;20037;-57
2023/07/06 01:21:49;;;;;;;40.70;14.07;;;;;;;;;;5053683;28;20040;-58
2023/07/06 01:24:29;;;;;;;33.72;14.00;;;;;;;;;;5053552;28;20039;-57
2023/07/06 01:26:56;;;;;;;34.65;13.63;;;;;;;;;;5049325;28;20060;-57
2023/07/06 01:29:43;;;;;;;33.97;13.63;;;;;;;;;;5035324;28;20031;-59
2023/07/06 01:32:13;;;;;;;35.47;12.90;;;;;;;;;;5052064;28;20039;-56
2023/07/06 01:34:48;;;;;;;32.53;13.48;;;;;;;;;;5053386;28;20033;-58
2023/07/06 01:37:18;;;;;;;39.88;12.30;;;;;;;;;;5053512;28;20025;-54
2023/07/06 01:39:45;;;;;;;39.97;12.50;;;;;;;;;;5053462;28;20056;-54
2023/07/06 01:42:13;;;;;;;37.70;12.48;;;;;;;;;;5053452;28;20029;-54
2023/07/06 01:44:42;;;;;;;40.20;12.52;;;;;;;;;;5053217;28;20071;-55
2023/07/06 01:47:09;;;;;;;38.92;12.73;;;;;;;;;;5049608;28;20490;-57
2023/07/06 01:49:37;;;;;;;41.65;12.63;;;;;;;;;;5051975;28;20482;-55
2023/07/06 01:52:09;;;;;;;35.38;12.23;;;;;;;;;;5051855;28;20086;-58
2023/07/06 01:54:41;;;;;;;37.25;11.35;;;;;;;;;;5051739;28;20047;-58
2023/07/06 01:57:17;;;;;;;27.67;11.50;;;;;;;;;;5051803;28;20124;-57
2023/07/06 01:59:47;;;;;;;29.08;11.20;;;;;;;;;;5051975;28;20068;-57
2023/07/06 02:02:16;;;;;;;24.60;11.38;;;;;;;;;;5051937;28;20029;-57
2023/07/06 02:04:43;;;;;;;29.63;11.52;;;;;;;;;;5052031;28;20112;-56
2023/07/06 02:07:13;;;;;;;24.85;10.57;;;;;;;;;;5052177;28;20120;-57
2023/07/06 02:09:46;;;;;;;24.92;10.82;;;;;;;;;;5046858;28;20033;-57
2023/07/06 02:12:14;;;;;;;20.58;10.05;;;;;;;;;;5052988;28;20045;-58
2023/07/06 02:14:42;;;;;;;23.25;11.13;;;;;;;;;;5053007;28;20025;-58
2023/07/06 02:17:10;;;;;;;23.42;10.43;;;;;;;;;;5052817;28;20037;-58
2023/07/06 02:19:38;;;;;;;24.30;10.45;;;;;;;;;;5052154;28;20087;-58
2023/07/06 02:22:05;;;;;;;20.13;10.30;;;;;;;;;;5052662;28;20041;-58
2023/07/06 02:24:32;;;;;;;21.80;9.35;;;;;;;;;;5052768;28;20471;-58
2023/07/06 02:26:59;;;;;;;26.77;10.20;;;;;;;;;;5052843;28;20382;-58
2023/07/06 02:29:26;;;;;;;27.00;10.23;;;;;;;;;;5052619;28;20486;-58
2023/07/06 02:31:53;;;;;;;22.77;10.10;;;;;;;;;;5052763;28;20021;-58
2023/07/06 02:34:27;;;;;;;20.75;9.63;;;;;;;;;;5052671;28;20023;-58
2023/07/06 02:36:54;;;;;;;22.50;8.82;;;;;;;;;;5052423;28;20060;-58
2023/07/06 02:39:24;;;;;;;22.17;9.27;;;;;;;;;;5052490;28;20028;-58
2023/07/06 02:41:54;;;;;;;19.02;9.38;;;;;;;;;;5052450;28;20375;-58
2023/07/06 02:44:22;;;;;;;14.77;8.40;;;;;;;;;;5052429;28;20025;-58
2023/07/06 02:46:49;;;;;;;17.67;8.68;;;;;;;;;;5052352;28;20486;-58
2023/07/06 02:49:16;;;;;;;17.35;9.07;;;;;;;;;;5052346;28;20017;-58
2023/07/06 02:51:43;;;;;;;15.20;8.43;;;;;;;;;;5052361;28;20059;-58
2023/07/06 02:54:15;;;;;;;17.40;8.35;;;;;;;;;;5052300;28;20049;-58
2023/07/06 02:56:42;;;;;;;16.02;8.80;;;;;;;;;;5052117;28;20118;-59
2023/07/06 02:59:10;;;;;;;16.85;7.82;;;;;;;;;;5052047;28;20021;-58
2023/07/06 03:01:37;;;;;;;16.48;7.97;;;;;;;;;;5052103;28;20060;-58
2023/07/06 03:04:11;;;;;;;18.20;8.50;;;;;;;;;;5052125;28;20029;-58
2023/07/06 03:06:39;;;;;;;14.40;7.97;;;;;;;;;;5052097;28;20021;-58
2023/07/06 03:09:07;;;;;;;15.20;8.25;;;;;;;;;;5051908;28;20025;-58
2023/07/06 03:11:34;;;;;;;17.33;8.00;;;;;;;;;;5051989;28;20017;-58
2023/07/06 03:14:03;;;;;;;14.95;7.80;;;;;;;;;;5051931;28;20155;-58
2023/07/06 03:16:39;;;;;;;13.93;7.88;;;;;;;;;;5051842;28;20041;-58
2023/07/06 03:19:10;;;;;;;15.82;7.35;;;;;;;;;;5051685;28;20041;-58
2023/07/06 03:21:38;;;;;;;17.95;7.57;;;;;;;;;;5033994;28;20051;-58
2023/07/06 03:24:06;;;;;;;16.00;7.53;;;;;;;;;;5051661;28;20402;-58
2023/07/06 03:26:36;;;;;;;17.42;7.10;;;;;;;;;;5051761;28;20495;-58
2023/07/06 03:29:07;;;;;;;14.13;7.53;;;;;;;;;;5051563;28;20047;-58
2023/07/06 03:31:34;;;;;;;13.65;7.45;;;;;;;;;;5050990;28;20060;-58
2023/07/06 03:34:01;;;;;;;13.25;7.18;;;;;;;;;;5033760;28;20032;-59
2023/07/06 03:36:31;;;;;;;12.18;6.70;;;;;;;;;;5051648;28;20539;-58
2023/07/06 03:38:58;;;;;;;14.70;7.22;;;;;;;;;;5051331;28;20048;-58
2023/07/06 03:41:25;;;;;;;12.30;6.63;;;;;;;;;;5051509;28;20064;-58
2023/07/06 03:43:56;;;;;;;12.20;7.03;;;;;;;;;;5051571;28;20035;-58
2023/07/06 03:46:25;;;;;;;11.70;6.40;;;;;;;;;;5051388;28;20036;-58
2023/07/06 03:48:52;;;;;;;12.82;6.85;;;;;;;;;;5051370;28;20075;-58
2023/07/06 03:51:19;;;;;;;11.77;5.90;;;;;;;;;;5051385;28;20033;-58
2023/07/06 03:53:46;;;;;;;11.52;6.30;;;;;;;;;;5051478;28;20482;-58
2023/07/06 03:56:14;;;;;;;12.45;6.47;;;;;;;;;;5051475;28;20032;-58
2023/07/06 03:58:42;;;;;;;14.23;6.68;;;;;;;;;;5051231;28;20379;-58
2023/07/06 04:01:10;;;;;;;10.02;5.57;;;;;;;;;;5051289;28;20036;-58
2023/07/06 04:03:37;;;;;;;11.80;6.55;;;;;;;;;;5051557;28;20033;-58
2023/07/06 04:06:04;;;;;;;10.07;5.90;;;;;;;;;;5051382;28;20029;-58
2023/07/06 04:08:32;;;;;;;10.38;6.13;;;;;;;;;;5051359;28;20375;-58
2023/07/06 04:11:00;;;;;;;10.75;5.78;;;;;;;;;;5051273;28;20033;-58
2023/07/06 04:13:27;;;;;;;10.73;6.05;;;;;;;;;;5051392;28;20029;-58
2023/07/06 04:15:54;;;;;;;11.00;5.68;;;;;;;;;;5051224;28;20037;-58
2023/07/06 04:18:21;;;;;;;11.70;5.72;;;;;;;;;;5051138;28;20052;-59
2023/07/06 04:20:49;;;;;;;10.98;5.70;;;;;;;;;;5050978;28;20538;-58
2023/07/06 04:23:17;;;;;;;11.57;6.15;;;;;;;;;;5051135;28;20029;-58
2023/07/06 04:25:44;;;;;;;10.93;6.22;;;;;;;;;;5051087;28;20037;-58
2023/07/06 04:28:14;;;;;;;10.55;6.05;;;;;;;;;;5051112;28;20037;-58
2023/07/06 04:30:43;;;;;;;11.18;5.50;;;;;;;;;;5051090;28;20364;-58
2023/07/06 04:33:15;;;;;;;8.98;5.20;;;;;;;;;;5051144;28;20067;-58
2023/07/06 04:35:42;;;;;;;11.10;5.70;;;;;;;;;;5045137;28;20037;-58
2023/07/06 04:38:10;;;;;;;9.88;5.28;;;;;;;;;;5050921;28;20041;-57
2023/07/06 04:40:41;;;;;;;10.80;5.38;;;;;;;;;;5050883;28;20506;-58
2023/07/06 04:43:09;;;;;;;11.32;5.60;;;;;;;;;;5052175;28;20036;-58
2023/07/06 04:45:36;;;;;;;9.82;5.35;;;;;;;;;;5054723;28;20155;-58
2023/07/06 04:48:05;;;;;;;9.70;5.07;;;;;;;;;;5054694;28;20517;-58
2023/07/06 04:50:32;;;;;;;8.93;5.40;;;;;;;;;;5054671;28;20028;-58
2023/07/06 04:53:01;;;;;;;8.77;4.95;;;;;;;;;;5054621;28;20813;-58
2023/07/06 04:55:29;;;;;;;7.93;5.05;;;;;;;;;;5054627;28;20072;-58
2023/07/06 04:57:58;;;;;;;7.45;4.75;;;;;;;;;;5054379;28;20033;-58
2023/07/06 05:00:28;;;;;;;9.15;5.10;;;;;;;;;;5054311;28;20390;-58
2023/07/06 05:02:58;;;;;;;9.23;5.00;;;;;;;;;;5054624;28;20037;-58
2023/07/06 05:05:25;;;;;;;9.07;4.88;;;;;;;;;;5054305;28;20095;-58
2023/07/06 05:07:55;;;;;;;9.48;4.95;;;;;;;;;;5054261;28;20086;-58
2023/07/06 05:10:22;;;;;;;7.88;4.50;;;;;;;;;;5054011;28;20040;-58
2023/07/06 05:12:51;;;;;;;8.40;4.38;;;;;;;;;;5054139;28;20044;-58
2023/07/06 05:15:19;;;;;;;8.57;4.60;;;;;;;;;;5054063;28;20040;-58
2023/07/06 05:17:46;;;;;;;8.38;4.20;;;;;;;;;;5054104;28;20032;-58
2023/07/06 05:20:16;;;;;;;10.07;4.95;;;;;;;;;;5053786;28;20522;-58
2023/07/06 05:22:47;;;;;;;8.18;4.63;;;;;;;;;;5054033;28;20388;-58
2023/07/06 05:25:14;;;;;;;6.85;4.20;;;;;;;;;;5053948;28;20033;-58
2023/07/06 05:27:41;;;;;;;7.18;4.50;;;;;;;;;;5053918;28;20120;-58
2023/07/06 05:30:09;;;;;;;7.40;4.35;;;;;;;;;;5053829;28;20060;-58
2023/07/06 05:32:36;;;;;;;7.03;4.57;;;;;;;;;;5053835;28;20036;-58
2023/07/06 05:35:03;;;;;;;8.77;4.20;;;;;;;;;;5053695;28;20021;-58
2023/07/06 05:37:30;;;;;;;9.75;4.35;;;;;;;;;;5053691;28;20037;-58
2023/07/06 05:39:59;;;;;;;7.45;4.50;;;;;;;;;;5053671;28;20036;-58
2023/07/06 05:42:26;;;;;;;7.28;4.03;;;;;;;;;;5053498;28;20482;-58
2023/07/06 05:44:54;;;;;;;7.47;4.22;;;;;;;;;;5053916;28;20025;-58
2023/07/06 05:47:21;;;;;;;7.00;4.03;;;;;;;;;;5053389;28;20037;-57
2023/07/06 05:49:48;;;;;;;7.68;4.25;;;;;;;;;;5053427;28;20021;-57
2023/07/06 05:52:15;;;;;;;6.30;4.18;;;;;;;;;;5053523;28;20509;-57
2023/07/06 05:54:42;;;;;;;6.30;4.18;;;;;;;;;;5052746;28;20025;-58
2023/07/06 05:57:10;;;;;;;9.65;4.63;;;;;;;;;;5053399;28;20037;-57
2023/07/06 05:59:41;;;;;;;6.32;4.07;;;;;;;;;;5053157;28;20036;-57
2023/07/06 06:02:14;;;;;;;8.60;4.18;;;;;;;;;;5051915;28;20047;-57
2023/07/06 06:04:41;;;;;;;6.32;4.05;;;;;;;;;;5053303;28;20029;-56
2023/07/06 06:07:09;;;;;;;7.53;3.28;;;;;;;;;;5035258;28;20459;-58
2023/07/06 06:09:36;;;;;;;6.00;3.80;;;;;;;;;;5052969;28;20033;-57
2023/07/06 06:12:04;;;;;;;5.97;3.85;;;;;;;;;;5053135;28;20501;-56
2023/07/06 06:14:31;;;;;;;6.88;4.35;;;;;;;;;;5049964;28;20694;-56
2023/07/06 06:16:58;;;;;;;5.65;3.78;;;;;;;;;;5053009;28;20383;-58
2023/07/06 06:19:27;;;;;;;7.10;4.13;;;;;;;;;;5052608;28;20133;-57
2023/07/06 06:21:54;;;;;;;7.00;3.70;;;;;;;;;;5053042;28;20237;-54
2023/07/06 06:24:22;;;;;;;6.95;3.53;;;;;;;;;;5046522;28;20033;-57
2023/07/06 06:26:50;;;;;;;6.03;3.47;;;;;;;;;;5052954;28;20040;-57
2023/07/06 06:29:17;;;;;;;4.50;3.47;;;;;;;;;;5052634;28;20112;-57
2023/07/06 06:31:44;;;;;;;6.97;3.80;;;;;;;;;;5052481;28;20025;-58
2023/07/06 06:34:12;;;;;;;6.00;3.50;;;;;;;;;;5052745;28;20075;-58
2023/07/06 06:36:41;;;;;;;4.97;3.42;;;;;;;;;;5052739;28;20108;-59
2023/07/06 06:39:09;;;;;;;5.93;3.20;;;;;;;;;;5052601;28;20131;-58
2023/07/06 06:41:39;;;;;;;4.70;3.45;;;;;;;;;;5052448;28;20037;-58
2023/07/06 06:44:06;;;;;;;5.90;3.72;;;;;;;;;;5052540;28;20104;-58
2023/07/06 06:46:33;;;;;;;5.78;3.80;;;;;;;;;;5052492;28;20033;-56
2023/07/06 06:49:00;;;;;;;6.28;3.85;;;;;;;;;;5052383;28;20499;-57
2023/07/06 06:51:27;;;;;;;5.18;3.30;;;;;;;;;;5052392;28;20053;-57
2023/07/06 06:53:54;;;;;;;4.75;3.50;;;;;;;;;;5052393;28;20106;-57
2023/07/06 06:56:22;;;;;;;5.07;3.30;;;;;;;;;;5052380;28;20028;-56
2023/07/06 06:58:51;;;;;;;5.63;3.72;;;;;;;;;;5051977;28;20119;-58
2023/07/06 07:01:20;;;;;;;4.90;2.92;;;;;;;;;;5052079;28;20503;-56
2023/07/06 07:03:48;;;;;;;5.63;3.28;;;;;;;;;;5052052;28;20470;-57
2023/07/06 07:06:17;;;;;;;5.13;3.70;;;;;;;;;;5052005;28;20067;-57
2023/07/06 07:08:45;;;;;;;6.43;3.40;;;;;;;;;;5051877;28;20090;-56
2023/07/06 07:11:12;;;;;;;4.82;3.28;;;;;;;;;;5051989;28;20021;-57
2023/07/06 07:13:40;;;;;;;5.38;3.30;;;;;;;;;;5052087;28;20048;-57
2023/07/06 07:16:11;;;;;;;4.05;3.00;;;;;;;;;;5052095;28;20033;-57
2023/07/06 07:18:38;;;;;;;4.85;3.30;;;;;;;;;;5051887;28;20066;-57
2023/07/06 07:21:09;;;;;;;4.03;2.90;;;;;;;;;;5051804;28;20048;-57
2023/07/06 07:23:46;;;;;;;4.43;3.00;;;;;;;;;;5051554;28;20056;-57
2023/07/06 07:26:15;;;;;;;5.43;3.13;;;;;;;;;;5033849;28;20415;-55
2023/07/06 07:28:42;;;;;;;5.88;3.35;;;;;;;;;;5051759;28;20025;-57
2023/07/06 07:31:13;;;;;;;3.80;2.78;;;;;;;;;;5051701;28;20422;-57
2023/07/06 07:33:44;;;;;;;5.65;3.10;;;;;;;;;;5051598;28;20072;-57
2023/07/06 07:36:12;;;;;;;5.05;3.10;;;;;;;;;;5051733;28;20530;-57
2023/07/06 07:38:39;;;;;;;4.10;2.92;;;;;;;;;;5051498;28;20037;-56
2023/07/06 07:41:07;;;;;;;4.53;2.90;;;;;;;;;;5051647;28;20029;-57
2023/07/06 07:43:42;;;;;;;4.93;3.10;;;;;;;;;;5051613;28;20059;-58
2023/07/06 07:46:10;;;;;;;4.68;2.85;;;;;;;;;;5051413;28;20075;-57
2023/07/06 07:48:38;;;;;;;4.15;2.90;;;;;;;;;;5051347;28;20529;-58
2023/07/06 07:51:09;;;;;;;5.90;3.20;;;;;;;;;;5051522;28;20037;-58
2023/07/06 07:53:38;;;;;;;3.58;2.58;;;;;;;;;;5051295;28;20036;-58
2023/07/06 07:56:05;;;;;;;4.32;2.95;;;;;;;;;;5051422;28;20033;-58
2023/07/06 07:58:37;;;;;;;4.97;3.03;;;;;;;;;;5054498;28;20036;-56
2023/07/06 08:01:05;;;;;;;4.53;2.90;;;;;;;;;;5071463;28;20020;-57
2023/07/06 08:03:33;;;;;;;4.10;2.67;;;;;;;;;;5071260;28;20032;-58
2023/07/06 08:06:05;;;;;;;4.10;2.60;;;;;;;;;;5071374;28;20032;-57
2023/07/06 08:08:33;;;;;;;4.63;2.80;;;;;;;;;;5071343;28;20024;-57
2023/07/06 08:11:04;;;;;;;4.65;3.10;;;;;;;;;;5071284;28;20032;-57
2023/07/06 08:13:31;;;;;;;3.53;2.63;;;;;;;;;;5066435;28;20060;-58
2023/07/06 08:15:58;;;;;;;3.15;2.40;;;;;;;;;;5051142;28;20037;-57
2023/07/06 08:18:26;;;;;;;3.28;2.63;;;;;;;;;;5052929;28;20036;-57
2023/07/06 08:20:54;;;;;;;4.00;2.60;;;;;;;;;;5055125;28;20053;-57
2023/07/06 08:23:24;;;;;;;5.05;2.60;;;;;;;;;;5055036;28;20112;-57
2023/07/06 08:25:52;;;;;;;4.38;2.80;;;;;;;;;;5055148;28;20021;-55
2023/07/06 08:28:20;;;;;;;4.20;2.70;;;;;;;;;;5055017;28;20063;-59
2023/07/06 08:30:49;;;;;;;4.28;2.92;;;;;;;;;;5055027;28;20063;-57
2023/07/06 08:33:16;;;;;;;5.18;2.90;;;;;;;;;;5054869;28;20556;-57
2023/07/06 08:35:44;;;;;;;3.42;2.60;;;;;;;;;;5054892;28;20562;-57
2023/07/06 08:38:12;;;;;;;4.00;2.78;;;;;;;;;;5054847;28;20108;-58
2023/07/06 08:40:40;;;;;;;3.72;2.60;;;;;;;;;;5054850;28;20104;-58
2023/07/06 08:43:13;;;;;;;3.63;2.35;;;;;;;;;;5054825;28;20071;-56
2023/07/06 08:45:42;;;;;;;5.75;2.90;;;;;;;;;;5054807;28;20108;-57
2023/07/06 08:48:17;;;;;;;3.63;2.50;;;;;;;;;;5054589;28;20065;-57
2023/07/06 08:50:45;;;;;;;4.50;2.70;;;;;;;;;;5054700;28;20036;-57
2023/07/06 08:53:14;;;;;;;3.90;2.50;;;;;;;;;;5054671;28;20028;-57
2023/07/06 08:55:42;;;;;;;5.68;2.90;;;;;;;;;;5054405;28;20033;-57
2023/07/06 08:58:12;;;;;;;4.15;2.90;;;;;;;;;;5054269;28;20029;-56
2023/07/06 09:00:40;;;;;;;4.47;2.42;;;;;;;;;;5054033;28;20048;-58
2023/07/06 09:03:08;;;;;;;4.63;2.47;;;;;;;;;;5054470;28;20025;-57
2023/07/06 09:05:41;;;;;;;4.90;3.10;;;;;;;;;;5054127;28;20036;-58
2023/07/06 09:08:07;;;;;;;;;;;;;;;;;;5054048;28;20021;-55
2023/07/06 09:10:34;;;;;;;3.95;3.05;;;;;;;;;;5054299;28;19913;-56
2023/07/06 09:13:37;;;;;;;3.95;2.80;;;;;;;;;;5053559;28;20064;-57
2023/07/06 09:16:04;;;;;;;5.18;3.45;;;;;;;;;;4992616;28;20042;-57
2023/07/06 09:18:31;;;;;;;5.05;2.90;;;;;;;;;;5042324;28;20072;-58
2023/07/06 09:20:59;;;;;;;6.03;3.13;;;;;;;;;;5052639;28;20127;-58
2023/07/06 09:23:26;;;;;;;6.70;3.20;;;;;;;;;;5053422;28;20074;-57
2023/07/06 09:25:56;;;;;;;9.68;3.05;;;;;;;;;;5052795;28;20132;-59
2023/07/06 09:28:26;;;;;;;6.07;2.75;;;;;;;;;;5053043;28;20536;-58
2023/07/06 09:31:07;;;;;;;5.85;3.42;;;;;;;;;;5051938;28;20051;-59
2023/07/06 09:33:34;;;;;;;5.78;3.20;;;;;;;;;;5053204;28;20035;-58
2023/07/06 09:36:06;;;;;;;5.20;3.10;;;;;;;;;;5053580;28;20467;-58
2023/07/06 09:38:43;;;;;;;7.13;3.30;;;;;;;;;;5052828;28;20115;-58
2023/07/06 09:41:20;;;;;;;6.75;2.92;;;;;;;;;;5052732;28;20103;-58
2023/07/06 09:43:47;;;;;;;9.50;3.33;;;;;;;;;;5052947;28;20029;-58
2023/07/06 09:46:14;;;;;;;5.07;3.15;;;;;;;;;;5054578;28;20159;-58
2023/07/06 09:48:42;;;;;;;8.18;3.35;;;;;;;;;;5053440;28;20036;-57
2023/07/06 09:51:15;;;;;;;9.65;3.15;;;;;;;;;;5053478;28;20075;-57
2023/07/06 09:53:59;;;;;;;5.82;2.95;;;;;;;;;;5053470;28;20029;-58
2023/07/06 09:56:29;;;;;;;11.50;3.60;;;;;;;;;;5053460;28;20457;-58
2023/07/06 09:58:56;;;;;;;8.57;3.28;;;;;;;;;;5053130;28;20043;-58
2023/07/06 10:01:42;;;;;;;7.18;3.35;;;;;;;;;;5053441;28;20501;-57
2023/07/06 10:04:20;;;;;;;7.38;3.25;;;;;;;;;;5053113;28;20035;-57
2023/07/06 10:07:01;;;;;;;7.47;3.58;;;;;;;;;;5052710;28;20139;-59
2023/07/06 10:09:40;;;;;;;8.68;3.50;;;;;;;;;;5049409;28;20029;-58
2023/07/06 10:12:20;;;;;;;12.27;3.85;;;;;;;;;;5053387;28;20033;-58
2023/07/06 10:14:51;;;;;;;10.27;3.35;;;;;;;;;;5053007;28;20475;-57
2023/07/06 10:17:18;;;;;;;9.70;3.63;;;;;;;;;;5052471;28;20071;-59
2023/07/06 10:19:53;;;;;;;6.05;3.30;;;;;;;;;;5051636;28;20410;-58
2023/07/06 10:22:23;;;;;;;9.00;3.50;;;;;;;;;;5052634;28;20067;-57
2023/07/06 10:24:50;;;;;;;6.78;3.60;;;;;;;;;;5052782;28;20104;-57
2023/07/06 10:27:19;;;;;;;7.95;3.53;;;;;;;;;;5052741;28;20671;-55
2023/07/06 10:29:51;;;;;;;7.70;3.65;;;;;;;;;;5051101;28;20033;-58
2023/07/06 10:32:24;;;;;;;6.40;3.42;;;;;;;;;;5052296;28;20033;-59
2023/07/06 10:35:03;;;;;;;8.38;3.83;;;;;;;;;;5052379;28;20033;-57
2023/07/06 10:37:31;;;;;;;7.07;3.67;;;;;;;;;;5051736;28;20037;-54
2023/07/06 10:40:08;;;;;;;7.45;3.10;;;;;;;;;;5050511;28;20060;-59
2023/07/06 10:42:35;;;;;;;6.32;3.40;;;;;;;;;;5050119;28;20098;-57
2023/07/06 10:45:03;;;;;;;7.68;3.35;;;;;;;;;;5052277;28;20033;-51
2023/07/06 10:47:30;;;;;;;8.38;4.20;;;;;;;;;;5051900;28;20039;-57
2023/07/06 10:50:08;;;;;;;6.88;3.47;;;;;;;;;;5050280;28;20577;-57
2023/07/06 10:52:45;;;;;;;6.50;3.55;;;;;;;;;;5051078;28;20075;-57
2023/07/06 10:55:25;;;;;;;6.57;3.30;;;;;;;;;;5050993;28;20025;-57
2023/07/06 10:57:59;;;;;;;5.35;2.90;;;;;;;;;;5049772;28;20055;-53
2023/07/06 11:00:35;;;;;;;6.75;3.22;;;;;;;;;;5050187;28;20597;-58
2023/07/06 11:03:03;;;;;;;9.23;3.30;;;;;;;;;;5051578;28;20120;-52
2023/07/06 11:05:31;;;;;;;7.28;2.97;;;;;;;;;;5052002;28;20021;-59
2023/07/06 11:08:03;;;;;;;6.07;2.83;;;;;;;;;;5051781;28;20025;-52
2023/07/06 11:10:39;;;;;;;8.68;3.08;;;;;;;;;;5051280;28;20029;-55
2023/07/06 11:13:06;;;;;;;5.65;3.00;;;;;;;;;;5051012;28;20029;-56
2023/07/06 11:15:51;;;;;;;8.30;2.85;;;;;;;;;;5051897;28;20033;-56
2023/07/06 11:18:23;;;;;;;8.85;2.60;;;;;;;;;;5051133;28;20445;-53
2023/07/06 11:20:51;;;;;;;7.70;3.13;;;;;;;;;;5047846;28;20040;-55
2023/07/06 11:23:19;;;;;;;4.38;2.55;;;;;;;;;;5046709;28;20037;-55
2023/07/06 11:25:49;;;;;;;6.45;3.30;;;;;;;;;;5051454;28;20390;-56
2023/07/06 11:28:25;;;;;;;6.28;2.92;;;;;;;;;;5051038;28;20047;-56
2023/07/06 11:31:12;;;;;;;6.63;3.20;;;;;;;;;;5040812;28;20041;-54
2023/07/06 11:33:51;;;;;;;6.25;2.60;;;;;;;;;;5031352;28;20034;-56
2023/07/06 11:36:21;;;;;;;9.50;2.92;;;;;;;;;;5031392;28;20049;-57
2023/07/06 11:38:48;;;;;;;4.47;2.42;;;;;;;;;;5031456;28;20471;-56
2023/07/06 11:41:31;;;;;;;11.07;2.92;;;;;;;;;;5031386;28;20071;-55
2023/07/06 11:44:03;;;;;;;7.47;2.80;;;;;;;;;;5031521;28;20036;-56
2023/07/06 11:46:50;;;;;;;13.40;3.47;;;;;;;;;;5031298;28;20040;-54
2023/07/06 11:49:35;;;;;;;9.25;2.67;;;;;;;;;;5031396;28;20033;-56
2023/07/06 11:52:05;;;;;;;9.48;3.10;;;;;;;;;;5030985;28;20527;-56
2023/07/06 11:57:44;;;;;;;5.55;2.63;;;;;;;;;;4970153;28;20047;-56
2023/07/06 12:02:52;;;;;;;9.75;2.90;;;;;;;;;;5004074;28;20438;-57
2023/07/06 12:05:25;;;;;;;8.50;2.40;;;;;;;;;;5031164;28;20388;-56
2023/07/06 12:08:00;;;;;;;6.75;2.50;;;;;;;;;;5031341;28;20390;-54
2023/07/06 12:10:29;;;;;;;6.35;3.00;;;;;;;;;;5031280;28;20033;-55
2023/07/06 12:12:57;;;;;;;8.80;2.80;;;;;;;;;;5031160;28;20435;-56
2023/07/06 12:15:24;;;;;;;6.95;2.45;;;;;;;;;;5031195;28;20395;-56
2023/07/06 12:17:56;;;;;;;5.53;2.65;;;;;;;;;;5030951;28;20037;-53
2023/07/06 12:20:26;;;;;;;5.45;2.28;;;;;;;;;;5030889;28;20046;-56
2023/07/06 12:22:54;;;;;;;8.20;2.78;;;;;;;;;;5031132;28;20025;-55
2023/07/06 12:25:23;;;;;;;6.57;2.20;;;;;;;;;;5031055;28;20026;-54
2023/07/06 12:27:50;;;;;;;5.70;2.45;;;;;;;;;;5031091;28;20033;-56
2023/07/06 12:30:17;;;;;;;8.57;2.35;;;;;;;;;;5031008;28;20021;-56
2023/07/06 12:32:48;;;;;;;6.32;2.45;;;;;;;;;;5031110;28;20116;-56
2023/07/06 12:35:15;;;;;;;5.25;2.45;;;;;;;;;;5013243;28;20040;-56
2023/07/06 12:37:44;;;;;;;7.25;2.72;;;;;;;;;;5030826;28;20033;-55
2023/07/06 12:40:21;;;;;;;5.90;2.45;;;;;;;;;;5030930;28;20017;-56
2023/07/06 12:42:49;;;;;;;5.75;2.53;;;;;;;;;;5030923;28;20034;-55
2023/07/06 12:45:16;;;;;;;6.50;2.42;;;;;;;;;;5030896;28;20037;-56
2023/07/06 12:47:43;;;;;;;4.93;2.40;;;;;;;;;;5030868;28;20035;-56
2023/07/06 12:50:16;;;;;;;6.28;2.60;;;;;;;;;;5030810;28;20025;-56
2023/07/06 12:52:42;;;;;;;;;;;;;;;;;;5031199;28;20557;-54
2023/07/06 12:55:21;;;;;;;4.15;2.15;;;;;;;;;;5030885;28;19909;-56
2023/07/06 12:57:48;;;;;;;5.47;2.33;;;;;;;;;;5030500;28;20095;-54
2023/07/06 13:00:17;;;;;;;4.30;2.38;;;;;;;;;;5030821;28;20032;-56
2023/07/06 13:02:45;;;;;;;4.88;2.22;;;;;;;;;;5030932;28;20029;-55
2023/07/06 13:05:23;;;;;;;3.58;1.50;;;;;;;;;;5033625;28;20502;-57
2023/07/06 13:07:51;;;;;;;3.97;2.10;;;;;;;;;;5034237;28;20037;-56
2023/07/06 13:10:20;;;;;;;4.35;1.90;;;;;;;;;;5034228;28;20037;-56
2023/07/06 13:12:48;;;;;;;6.90;2.55;;;;;;;;;;5034210;28;20579;-56
2023/07/06 13:15:23;;;;;;;5.15;2.15;;;;;;;;;;5034306;28;20029;-56
2023/07/06 13:17:52;;;;;;;3.72;1.90;;;;;;;;;;5033850;28;20064;-57
2023/07/06 13:20:19;;;;;;;4.82;2.08;;;;;;;;;;5033968;28;20065;-56
2023/07/06 13:22:46;;;;;;;4.07;2.15;;;;;;;;;;5034111;28;20030;-56
2023/07/06 13:25:18;;;;;;;4.93;2.25;;;;;;;;;;5034091;28;20793;-54
2023/07/06 13:27:46;;;;;;;3.53;2.15;;;;;;;;;;5033893;28;20045;-56
2023/07/06 13:30:14;;;;;;;4.82;2.08;;;;;;;;;;5033901;28;20038;-53
2023/07/06 13:32:41;;;;;;;3.60;1.77;;;;;;;;;;5033806;28;20029;-56
2023/07/06 13:35:09;;;;;;;4.53;1.85;;;;;;;;;;5033949;28;20075;-55
2023/07/06 13:37:40;;;;;;;3.35;1.88;;;;;;;;;;5033832;28;20387;-56
2023/07/06 13:40:10;;;;;;;4.93;1.48;;;;;;;;;;5033992;28;20029;-55
2023/07/06 13:42:37;;;;;;;3.35;1.83;;;;;;;;;;5033688;28;20037;-55
2023/07/06 13:45:04;;;;;;;5.22;1.98;;;;;;;;;;5033568;28;20060;-56
2023/07/06 13:47:31;;;;;;;4.75;1.70;;;;;;;;;;5033540;28;20026;-54
2023/07/06 13:49:58;;;;;;;4.28;2.00;;;;;;;;;;5033484;28;20108;-55
2023/07/06 13:52:25;;;;;;;2.85;1.52;;;;;;;;;;5033642;28;20415;-56
2023/07/06 13:54:52;;;;;;;2.95;1.50;;;;;;;;;;5033565;28;20025;-56
2023/07/06 13:57:20;;;;;;;3.05;1.92;;;;;;;;;;5033242;28;20034;-56
2023/07/06 13:59:47;;;;;;;4.28;1.77;;;;;;;;;;5033287;28;20040;-54
2023/07/06 14:02:14;;;;;;;3.75;1.67;;;;;;;;;;5033251;28;20494;-56
2023/07/06 14:04:42;;;;;;;4.15;1.92;;;;;;;;;;5033352;28;20026;-57
2023/07/06 14:07:12;;;;;;;3.95;1.80;;;;;;;;;;5033196;28;20033;-56
2023/07/06 14:09:39;;;;;;;2.55;1.42;;;;;;;;;;5033116;28;20057;-56
2023/07/06 14:12:07;;;;;;;3.42;1.70;;;;;;;;;;5033170;28;20049;-56
2023/07/06 14:14:34;;;;;;;4.32;1.60;;;;;;;;;;5033182;28;20038;-57
2023/07/06 14:17:03;;;;;;;2.85;1.52;;;;;;;;;;5032393;28;20026;-56
2023/07/06 14:19:30;;;;;;;2.92;1.60;;;;;;;;;;5032607;28;20041;-56
2023/07/06 14:21:56;;;;;;;2.45;1.40;;;;;;;;;;5032979;28;20037;-57
2023/07/06 14:24:25;;;;;;;5.05;1.77;;;;;;;;;;5033036;28;20064;-56
2023/07/06 14:26:52;;;;;;;4.35;1.60;;;;;;;;;;5032747;28;20033;-57
2023/07/06 14:29:19;;;;;;;3.58;1.60;;;;;;;;;;5032756;28;20083;-56
2023/07/06 14:31:46;;;;;;;2.20;1.42;;;;;;;;;;5032786;28;20029;-56
2023/07/06 14:34:16;;;;;;;2.60;1.60;;;;;;;;;;5032640;28;20819;-55
2023/07/06 14:36:43;;;;;;;5.25;1.38;;;;;;;;;;5032753;28;20027;-56
2023/07/06 14:39:10;;;;;;;3.03;1.45;;;;;;;;;;5032509;28;20041;-56
2023/07/06 14:41:37;;;;;;;2.85;1.40;;;;;;;;;;5032610;28;20029;-55
2023/07/06 14:44:04;;;;;;;2.90;1.42;;;;;;;;;;5032694;28;20467;-54
2023/07/06 14:46:31;;;;;;;2.53;1.40;;;;;;;;;;5032273;28;20056;-56
2023/07/06 14:48:58;;;;;;;2.85;1.60;;;;;;;;;;5032478;28;20052;-56
2023/07/06 14:51:25;;;;;;;2.67;1.40;;;;;;;;;;5032397;28;20087;-56
2023/07/06 14:53:52;;;;;;;5.18;1.52;;;;;;;;;;5032485;28;20025;-57
2023/07/06 14:56:21;;;;;;;1.50;1.25;;;;;;;;;;5032315;28;20056;-56
2023/07/06 14:58:48;;;;;;;5.32;1.38;;;;;;;;;;5031903;28;20084;-55